Time;durP1;ratioP1;P1;durP2;ratioP2;P2;SDS_P1;SDS_P2;PMS_P1;PMS_P2;Temp;Humidity;BMP_temperature;BMP_pressure;BME280_temperature;BME280_humidity;BME280_pressure;Samples;Min_cycle;Max_cycle;Signal;HPM_P1;HPM_P2
2021/01/27 00:00:13;;;;;;;6.90;3.03;;;;;;;-1.16;86.41;96218.84;1052109;28;20019;-74
2021/01/27 00:00:43;;;;;;;6.22;3.67;;;;;;;-1.22;86.22;96215.94;1052280;28;20024;-75
2021/01/27 00:01:14;;;;;;;5.43;3.33;;;;;;;-1.24;86.11;96217.91;1052098;28;20016;-75
2021/01/27 00:01:44;;;;;;;10.27;3.53;;;;;;;-1.26;86.11;96212.06;1052809;28;20059;-75
2021/01/27 00:02:15;;;;;;;4.63;3.25;;;;;;;-1.24;86.28;96215.31;1052354;28;20404;-75
2021/01/27 00:02:45;;;;;;;4.63;3.30;;;;;;;-1.25;86.12;96215.47;1052341;28;20111;-75
2021/01/27 00:03:16;;;;;;;6.25;3.17;;;;;;;-1.23;86.18;96219.53;1048731;28;20100;-75
2021/01/27 00:03:48;;;;;;;4.57;3.50;;;;;;;-1.22;88.42;96215.94;1048742;28;20023;-75
2021/01/27 00:04:19;;;;;;;9.05;3.65;;;;;;;-1.16;88.76;96213.66;1048538;28;20032;-73
2021/01/27 00:04:49;;;;;;;5.40;3.42;;;;;;;-1.19;87.43;96215.59;1048583;28;20021;-73
2021/01/27 00:05:24;;;;;;;4.95;3.10;;;;;;;-1.23;86.90;96213.50;1048395;28;20424;-73
2021/01/27 00:05:55;;;;;;;5.18;3.40;;;;;;;-1.24;87.69;96211.91;1048718;28;20119;-73
2021/01/27 00:06:25;;;;;;;4.90;2.90;;;;;;;-1.21;86.55;96217.56;1048388;28;20501;-73
2021/01/27 00:06:56;;;;;;;7.25;3.35;;;;;;;-1.19;86.17;96207.78;1048559;28;20073;-73
2021/01/27 00:07:26;;;;;;;3.30;2.72;;;;;;;-1.18;86.38;96208.63;1048565;28;20082;-73
2021/01/27 00:07:57;;;;;;;7.63;3.05;;;;;;;-1.20;86.16;96211.38;1047853;28;20024;-73
2021/01/27 00:08:27;;;;;;;6.15;3.10;;;;;;;-1.18;86.21;96206.03;1048276;28;20496;-74
2021/01/27 00:08:58;;;;;;;6.15;3.50;;;;;;;-1.15;88.00;96210.06;1048396;28;20013;-73
2021/01/27 00:09:29;;;;;;;4.55;2.97;;;;;;;-1.11;88.65;96200.91;1044294;28;20071;-74
2021/01/27 00:10:00;;;;;;;5.90;3.60;;;;;;;-1.11;86.46;96208.72;1048502;28;20055;-74
2021/01/27 00:10:31;;;;;;;4.95;3.15;;;;;;;-1.14;86.27;96196.88;1048302;28;20055;-73
2021/01/27 00:11:02;;;;;;;5.30;3.08;;;;;;;-1.15;85.96;96204.84;1048479;28;20035;-73
2021/01/27 00:11:32;;;;;;;4.53;3.42;;;;;;;-1.18;86.36;96208.63;1048884;28;20139;-74
2021/01/27 00:12:03;;;;;;;9.57;4.13;;;;;;;-1.20;86.01;96205.34;1049792;28;20069;-74
2021/01/27 00:12:34;;;;;;;5.43;3.47;;;;;;;-1.19;86.22;96204.38;1049596;28;20055;-74
2021/01/27 00:13:10;;;;;;;8.75;3.47;;;;;;;-1.18;86.31;96206.03;1049586;28;20123;-74
2021/01/27 00:13:41;;;;;;;5.32;3.13;;;;;;;-1.18;87.10;96198.22;1049894;28;20082;-74
2021/01/27 00:14:12;;;;;;;5.72;2.97;;;;;;;-1.17;87.14;96205.03;1049599;28;20070;-74
2021/01/27 00:14:42;;;;;;;6.15;3.20;;;;;;;-1.21;87.57;96196.75;1049861;28;20012;-74
2021/01/27 00:15:18;;;;;;;4.25;3.03;;;;;;;-1.17;86.93;96204.22;1049932;28;20024;-74
2021/01/27 00:15:48;;;;;;;4.47;3.00;;;;;;;-1.18;86.80;96203.41;1048747;28;20058;-74
2021/01/27 00:16:19;;;;;;;6.25;3.30;;;;;;;-1.16;86.63;96208.44;1048659;28;20082;-73
2021/01/27 00:16:49;;;;;;;4.70;2.97;;;;;;;-1.17;86.36;96196.44;1048663;28;20419;-74
2021/01/27 00:17:20;;;;;;;5.88;3.42;;;;;;;-1.17;86.53;96199.84;1048601;28;20493;-74
2021/01/27 00:17:50;;;;;;;4.13;2.83;;;;;;;-1.16;87.22;96196.25;1048568;28;20024;-73
2021/01/27 00:18:21;;;;;;;5.90;3.55;;;;;;;-1.16;86.55;96198.03;1048467;28;20040;-73
2021/01/27 00:18:51;;;;;;;6.60;3.53;;;;;;;-1.22;86.67;96195.13;1048507;28;20021;-73
2021/01/27 00:19:22;;;;;;;8.07;3.40;;;;;;;-1.17;86.19;96191.22;1048496;28;20024;-74
2021/01/27 00:19:52;;;;;;;5.28;3.60;;;;;;;-1.16;86.15;96195.44;1048605;28;20480;-73
2021/01/27 00:20:25;;;;;;;6.57;2.75;;;;;;;-1.17;87.94;96202.44;1048594;28;20017;-74
2021/01/27 00:20:55;;;;;;;5.60;2.95;;;;;;;-1.20;87.01;96193.16;1048518;28;20104;-74
2021/01/27 00:21:25;;;;;;;8.18;3.45;;;;;;;-1.20;86.98;96187.16;1048554;28;20073;-73
2021/01/27 00:21:56;;;;;;;5.60;3.13;;;;;;;-1.22;86.40;96184.72;1048596;28;20028;-73
2021/01/27 00:22:26;;;;;;;4.97;3.10;;;;;;;-1.23;87.07;96185.72;1048521;28;20013;-73
2021/01/27 00:22:57;;;;;;;7.03;3.05;;;;;;;-1.22;87.49;96182.13;1050052;28;20024;-74
2021/01/27 00:23:27;;;;;;;3.85;2.83;;;;;;;-1.20;86.86;96187.16;1052671;28;20035;-73
2021/01/27 00:23:58;;;;;;;4.55;3.03;;;;;;;-1.20;86.87;96174.16;1052777;28;20016;-73
2021/01/27 00:24:28;;;;;;;5.80;3.13;;;;;;;-1.17;88.52;96188.63;1052705;28;20024;-73
2021/01/27 00:24:58;;;;;;;4.70;3.10;;;;;;;-1.20;88.46;96174.16;1052394;28;20451;-73
2021/01/27 00:25:30;;;;;;;11.27;3.63;;;;;;;-1.20;87.28;96182.75;1052437;28;20407;-73
2021/01/27 00:26:01;;;;;;;5.22;3.10;;;;;;;-1.17;86.84;96181.63;1048209;28;20029;-74
2021/01/27 00:26:31;;;;;;;5.53;3.28;;;;;;;-1.20;87.40;96171.56;1048349;28;20028;-73
2021/01/27 00:27:02;;;;;;;6.45;3.35;;;;;;;-1.18;87.66;96174.81;1052396;28;20020;-73
2021/01/27 00:27:32;;;;;;;5.68;2.78;;;;;;;-1.14;86.99;96175.25;1044031;28;20025;-73
2021/01/27 00:28:03;;;;;;;4.82;3.00;;;;;;;-1.14;88.53;96172.66;1048471;28;20093;-75
2021/01/27 00:28:34;;;;;;;5.25;3.22;;;;;;;-1.15;86.70;96173.66;1043477;28;20044;-75
2021/01/27 00:29:04;;;;;;;8.45;4.07;;;;;;;-1.11;87.78;96172.31;1044524;28;20021;-75
2021/01/27 00:29:34;;;;;;;5.53;3.38;;;;;;;-1.12;87.53;96170.69;1052535;28;20424;-75
2021/01/27 00:30:12;;;;;;;4.90;3.38;;;;;;;-1.07;86.35;96171.78;1048561;28;20504;-74
2021/01/27 00:30:43;;;;;;;4.53;2.80;;;;;;;-1.10;86.36;96172.13;1048272;28;20432;-74
2021/01/27 00:31:14;;;;;;;7.82;3.40;;;;;;;-1.11;87.61;96174.91;1048319;28;20031;-75
2021/01/27 00:31:44;;;;;;;4.90;3.08;;;;;;;-1.13;86.67;96171.69;1049400;28;20498;-75
2021/01/27 00:32:14;;;;;;;6.35;3.22;;;;;;;-1.13;87.35;96177.69;1052439;28;20373;-75
2021/01/27 00:32:45;;;;;;;5.32;3.50;;;;;;;-1.14;86.64;96176.06;1052432;28;20023;-75
2021/01/27 00:33:16;;;;;;;5.85;3.15;;;;;;;-1.17;86.74;96168.63;1052661;28;20023;-75
2021/01/27 00:33:46;;;;;;;5.20;3.33;;;;;;;-1.22;88.12;96169.13;1052715;28;20008;-75
2021/01/27 00:34:20;;;;;;;4.72;2.97;;;;;;;-1.26;86.83;96173.06;1052726;28;20530;-75
2021/01/27 00:34:51;;;;;;;5.30;3.20;;;;;;;-1.22;87.17;96176.94;1052728;28;20380;-75
2021/01/27 00:35:25;;;;;;;8.82;3.88;;;;;;;-1.23;86.80;96179.72;1052587;28;20055;-74
2021/01/27 00:35:55;;;;;;;4.38;3.13;;;;;;;-1.22;86.48;96178.72;1052696;28;20020;-75
2021/01/27 00:36:26;;;;;;;8.38;2.80;;;;;;;-1.19;87.66;96168.78;1052564;28;20054;-75
2021/01/27 00:36:56;;;;;;;6.00;3.13;;;;;;;-1.21;87.17;96164.72;1052676;28;20065;-75
2021/01/27 00:37:27;;;;;;;9.70;3.40;;;;;;;-1.21;86.97;96170.75;1052769;28;20066;-75
2021/01/27 00:37:58;;;;;;;6.75;3.63;;;;;;;-1.18;88.21;96172.22;1052224;28;20085;-75
2021/01/27 00:38:28;;;;;;;4.38;3.15;;;;;;;-1.16;86.75;96170.25;1048219;28;20020;-74
2021/01/27 00:38:59;;;;;;;7.95;3.03;;;;;;;-1.21;86.70;96165.53;1048173;28;20016;-75
2021/01/27 00:39:29;;;;;;;5.30;2.70;;;;;;;-1.19;86.62;96166.16;1044031;28;20029;-75
2021/01/27 00:40:00;;;;;;;5.90;3.80;;;;;;;-1.17;86.45;96167.81;1048296;28;20021;-75
2021/01/27 00:40:30;;;;;;;5.35;2.90;;;;;;;-1.15;86.64;96169.25;1052396;28;20024;-74
2021/01/27 00:41:00;;;;;;;4.75;3.17;;;;;;;-1.16;86.67;96172.03;1047454;28;20012;-75
2021/01/27 00:41:31;;;;;;;4.80;3.30;;;;;;;-1.17;86.93;96167.81;1049685;28;20485;-75
2021/01/27 00:42:01;;;;;;;4.25;3.15;;;;;;;-1.19;86.42;96168.78;1052169;28;20534;-75
2021/01/27 00:42:32;;;;;;;6.53;3.67;;;;;;;-1.19;86.06;96173.16;1048603;28;20017;-75
2021/01/27 00:43:03;;;;;;;5.10;3.38;;;;;;;-1.21;86.18;96165.53;1048464;28;20024;-74
2021/01/27 00:43:33;;;;;;;5.00;3.33;;;;;;;-1.23;86.77;96172.72;1048483;28;20470;-74
2021/01/27 00:44:04;;;;;;;5.30;3.25;;;;;;;-1.22;86.47;96169.13;1048393;28;20382;-73
2021/01/27 00:44:34;;;;;;;7.40;3.40;;;;;;;-1.21;86.47;96173.34;1048563;28;20029;-74
2021/01/27 00:45:05;;;;;;;3.88;2.97;;;;;;;-1.21;87.42;96169.94;1048072;28;20490;-73
2021/01/27 00:45:36;;;;;;;7.68;3.90;;;;;;;-1.22;87.01;96173.53;1048164;28;20021;-73
2021/01/27 00:46:06;;;;;;;4.80;2.85;;;;;;;-1.24;87.40;96165.91;1047823;28;20081;-73
2021/01/27 00:46:36;;;;;;;7.40;3.80;;;;;;;-1.28;87.26;96175.03;1048241;28;20024;-73
2021/01/27 00:47:07;;;;;;;3.75;2.90;;;;;;;-1.30;87.59;96176.19;1052370;28;20024;-73
2021/01/27 00:47:37;;;;;;;8.05;3.97;;;;;;;-1.28;87.47;96177.63;1052247;28;20028;-73
2021/01/27 00:48:08;;;;;;;6.78;3.75;;;;;;;-1.24;87.99;96178.91;1048420;28;20024;-74
2021/01/27 00:48:38;;;;;;;7.80;3.47;;;;;;;-1.24;87.04;96165.91;1048498;28;20374;-74
2021/01/27 00:49:09;;;;;;;4.95;3.55;;;;;;;-1.21;86.36;96170.75;1048492;28;20016;-74
2021/01/27 00:49:39;;;;;;;8.38;3.63;;;;;;;-1.21;86.29;96173.34;1048493;28;20381;-74
2021/01/27 00:50:10;;;;;;;5.75;3.42;;;;;;;-1.24;87.62;96171.09;1048445;28;20036;-74
2021/01/27 00:50:40;;;;;;;8.07;3.50;;;;;;;-1.27;88.13;96174.06;1048530;28;20092;-74
2021/01/27 00:51:11;;;;;;;10.55;3.20;;;;;;;-1.25;87.48;96164.28;1048491;28;20024;-74
2021/01/27 00:51:41;;;;;;;6.35;3.75;;;;;;;-1.25;87.69;96176.47;1048450;28;20016;-74
2021/01/27 00:52:13;;;;;;;5.93;3.10;;;;;;;-1.22;88.45;96173.53;1048396;28;20070;-74
2021/01/27 00:52:43;;;;;;;4.55;3.25;;;;;;;-1.22;88.59;96169.13;1048709;28;20027;-74
2021/01/27 00:53:14;;;;;;;3.90;2.60;;;;;;;-1.21;87.93;96165.53;1048549;28;20024;-74
2021/01/27 00:53:44;;;;;;;4.05;2.90;;;;;;;-1.21;87.12;96170.75;1048539;28;20123;-74
2021/01/27 00:54:14;;;;;;;4.15;2.90;;;;;;;-1.17;86.41;96163.41;1047973;28;20398;-74
2021/01/27 00:54:45;;;;;;;6.43;3.60;;;;;;;-1.16;89.03;96166.84;1047906;28;20059;-74
2021/01/27 00:55:23;;;;;;;5.50;3.35;;;;;;;-1.13;89.15;96166.47;1048078;28;20089;-73
2021/01/27 00:55:53;;;;;;;5.68;3.58;;;;;;;-1.17;88.54;96155.63;1048311;28;20028;-73
2021/01/27 00:56:24;;;;;;;5.60;3.05;;;;;;;-1.12;87.30;96160.28;1048438;28;20505;-73
2021/01/27 00:56:54;;;;;;;4.53;2.80;;;;;;;-1.10;86.68;96166.13;1048515;28;20480;-74
2021/01/27 00:57:25;;;;;;;6.28;2.97;;;;;;;-1.10;87.61;96171.31;1048288;28;20135;-73
2021/01/27 00:57:55;;;;;;;5.20;3.03;;;;;;;-1.11;87.46;96167.09;1050345;28;20039;-73
2021/01/27 00:58:26;;;;;;;4.80;3.10;;;;;;;-1.14;86.46;96167.47;1050589;28;20367;-73
2021/01/27 00:58:56;;;;;;;5.47;3.45;;;;;;;-1.12;86.77;96168.09;1053889;28;20023;-74
2021/01/27 00:59:27;;;;;;;8.30;3.38;;;;;;;-1.20;87.47;96172.34;1053597;28;20024;-73
2021/01/27 00:59:57;;;;;;;5.85;3.25;;;;;;;-1.22;86.78;96163.94;1052379;28;20020;-74
2021/01/27 01:00:39;;;;;;;4.43;3.03;;;;;;;-1.20;87.49;96161.94;1051296;28;20044;-74
2021/01/27 01:01:09;;;;;;;5.72;2.90;;;;;;;-1.17;86.84;96165.22;1048581;28;20025;-74
2021/01/27 01:01:40;;;;;;;6.28;2.97;;;;;;;-1.14;86.50;96170.06;1048553;28;20028;-74
2021/01/27 01:02:10;;;;;;;4.60;2.72;;;;;;;-1.13;87.47;96166.47;1048529;28;20024;-74
2021/01/27 01:02:41;;;;;;;4.68;3.05;;;;;;;-1.11;87.47;96167.09;1053242;28;20023;-74
2021/01/27 01:03:11;;;;;;;5.82;2.95;;;;;;;-1.09;86.63;96167.72;1052251;28;20047;-74
2021/01/27 01:03:43;;;;;;;4.10;2.67;;;;;;;-1.10;86.88;96168.72;1052355;28;20024;-74
2021/01/27 01:04:13;;;;;;;5.35;3.15;;;;;;;-1.10;86.58;96166.13;1051484;28;20043;-74
2021/01/27 01:04:44;;;;;;;5.22;3.47;;;;;;;-1.09;86.06;96163.34;1048600;28;20032;-73
2021/01/27 01:05:18;;;;;;;4.80;3.15;;;;;;;-1.08;86.29;96170.16;1048283;28;20016;-74
2021/01/27 01:05:48;;;;;;;9.30;3.40;;;;;;;-1.09;86.47;96170.34;1048520;28;20028;-73
2021/01/27 01:06:18;;;;;;;5.70;3.20;;;;;;;-1.09;86.36;96172.94;1048247;28;20462;-74
2021/01/27 01:06:49;;;;;;;2.90;2.42;;;;;;;-1.13;86.09;96169.06;1048454;28;20043;-74
2021/01/27 01:07:19;;;;;;;5.13;3.20;;;;;;;-1.15;86.15;96168.44;1048345;28;20012;-74
2021/01/27 01:07:51;;;;;;;4.82;3.00;;;;;;;-1.11;86.21;96169.69;1048476;28;20009;-74
2021/01/27 01:08:22;;;;;;;4.35;2.90;;;;;;;-1.12;86.07;96168.91;1048324;28;20025;-74
2021/01/27 01:08:52;;;;;;;4.03;2.50;;;;;;;-1.13;86.08;96167.28;1048438;28;20362;-74
2021/01/27 01:09:22;;;;;;;9.57;3.55;;;;;;;-1.16;85.89;96166.84;1047972;28;20021;-73
2021/01/27 01:09:53;;;;;;;6.13;2.90;;;;;;;-1.18;85.98;96161.81;1048111;28;20013;-73
2021/01/27 01:10:25;;;;;;;3.95;2.97;;;;;;;-1.23;86.02;96164.09;1048172;28;20013;-73
2021/01/27 01:10:59;;;;;;;4.53;3.00;;;;;;;-1.21;86.15;96160.34;1048144;28;20021;-72
2021/01/27 01:11:29;;;;;;;3.45;2.63;;;;;;;-1.18;85.99;96172.22;1048443;28;20519;-72
2021/01/27 01:12:00;;;;;;;5.35;3.53;;;;;;;-1.17;87.91;96170.41;1048588;28;20074;-73
2021/01/27 01:12:30;;;;;;;5.53;3.20;;;;;;;-1.25;87.11;96166.88;1048280;28;20093;-73
2021/01/27 01:13:01;;;;;;;6.15;3.38;;;;;;;-1.25;87.40;96164.28;1051177;28;20021;-73
2021/01/27 01:13:31;;;;;;;6.35;2.80;;;;;;;-1.25;86.85;96153.88;1053236;28;20032;-73
2021/01/27 01:14:01;;;;;;;6.07;3.22;;;;;;;-1.23;86.57;96161.50;1053500;28;20018;-73
2021/01/27 01:14:32;;;;;;;2.88;2.53;;;;;;;-1.28;87.59;96159.44;1053089;28;20116;-73
2021/01/27 01:15:03;;;;;;;6.68;3.53;;;;;;;-1.27;87.40;96158.44;1053036;28;20042;-73
2021/01/27 01:15:33;;;;;;;7.15;3.47;;;;;;;-1.24;86.69;96160.69;1053071;28;20575;-73
2021/01/27 01:16:04;;;;;;;6.13;3.50;;;;;;;-1.23;86.13;96157.09;1053146;28;20082;-72
2021/01/27 01:16:34;;;;;;;5.80;3.00;;;;;;;-1.22;88.01;96161.31;1053534;28;20111;-73
2021/01/27 01:17:05;;;;;;;5.80;3.28;;;;;;;-1.23;87.51;96156.31;1053345;28;20008;-73
2021/01/27 01:17:35;;;;;;;6.47;3.28;;;;;;;-1.22;86.68;96157.91;1053395;28;20428;-73
2021/01/27 01:18:06;;;;;;;4.88;3.15;;;;;;;-1.26;86.64;96157.47;1053399;28;20468;-73
2021/01/27 01:18:36;;;;;;;5.63;3.17;;;;;;;-1.28;88.15;96158.63;1053354;28;20016;-73
2021/01/27 01:19:07;;;;;;;6.80;3.10;;;;;;;-1.31;87.98;96159.75;1052973;28;20012;-73
2021/01/27 01:19:38;;;;;;;4.97;3.38;;;;;;;-1.33;87.78;96156.53;1044677;28;20118;-73
2021/01/27 01:20:13;;;;;;;4.43;2.88;;;;;;;-1.32;86.89;96163.34;1044780;28;20528;-73
2021/01/27 01:20:44;;;;;;;4.03;2.72;;;;;;;-1.35;87.12;96166.28;1045639;28;20025;-73
2021/01/27 01:21:14;;;;;;;4.93;3.17;;;;;;;-1.34;88.04;96173.13;1049806;28;20019;-73
2021/01/27 01:21:45;;;;;;;5.47;2.65;;;;;;;-1.33;86.69;96174.72;1053361;28;20024;-74
2021/01/27 01:22:15;;;;;;;6.47;3.50;;;;;;;-1.33;85.93;96176.53;1053035;28;20008;-73
2021/01/27 01:22:48;;;;;;;4.07;3.10;;;;;;;-1.34;86.34;96175.72;1053991;28;20020;-74
2021/01/27 01:23:20;;;;;;;6.18;3.08;;;;;;;-1.35;85.69;96179.28;1054821;28;20012;-73
2021/01/27 01:23:51;;;;;;;7.13;3.20;;;;;;;-1.33;87.27;96176.53;1055107;28;20051;-74
2021/01/27 01:24:21;;;;;;;6.95;2.97;;;;;;;-1.40;86.78;96176.41;1055050;28;20016;-74
2021/01/27 01:24:51;;;;;;;6.57;3.17;;;;;;;-1.39;87.56;96172.03;1055039;28;20468;-74
2021/01/27 01:25:23;;;;;;;8.95;3.30;;;;;;;-1.40;87.52;96168.63;1054677;28;20017;-74
2021/01/27 01:25:53;;;;;;;6.65;3.08;;;;;;;-1.39;87.05;96162.44;1052964;28;20020;-74
2021/01/27 01:26:24;;;;;;;4.38;3.00;;;;;;;-1.40;87.40;96170.41;1053134;28;20028;-74
2021/01/27 01:26:54;;;;;;;4.85;3.25;;;;;;;-1.41;89.05;96174.00;1053336;28;20020;-74
2021/01/27 01:27:24;;;;;;;6.18;2.75;;;;;;;-1.40;87.80;96173.00;1052994;28;20016;-74
2021/01/27 01:27:55;;;;;;;5.30;3.35;;;;;;;-1.43;88.32;96171.53;1053052;28;20031;-74
2021/01/27 01:28:26;;;;;;;4.20;2.75;;;;;;;-1.45;88.57;96164.91;1053123;28;20012;-74
2021/01/27 01:28:56;;;;;;;7.90;3.45;;;;;;;-1.46;88.56;96161.50;1053038;28;20024;-74
2021/01/27 01:29:27;;;;;;;5.28;3.08;;;;;;;-1.45;88.95;96162.31;1053429;28;20008;-74
2021/01/27 01:30:00;;;;;;;3.60;2.53;;;;;;;-1.43;87.14;96162.94;1053303;28;20027;-73
2021/01/27 01:30:38;;;;;;;5.35;2.97;;;;;;;-1.44;87.54;96164.72;1052891;28;20020;-73
2021/01/27 01:31:09;;;;;;;6.03;2.92;;;;;;;-1.45;89.35;96157.91;1052891;28;20016;-73
2021/01/27 01:31:39;;;;;;;6.43;2.70;;;;;;;-1.45;89.54;96160.50;1052982;28;20012;-74
2021/01/27 01:32:10;;;;;;;8.15;3.47;;;;;;;-1.45;87.90;96152.72;1052944;28;20550;-73
2021/01/27 01:32:40;;;;;;;7.45;3.28;;;;;;;-1.45;87.35;96157.09;1052899;28;20019;-74
2021/01/27 01:33:22;;;;;;;5.90;3.42;;;;;;;-1.49;88.41;96154.06;1049869;28;20054;-74
2021/01/27 01:33:53;;;;;;;7.25;3.03;;;;;;;-1.50;88.41;96155.03;1048822;28;20013;-74
2021/01/27 01:34:23;;;;;;;8.00;3.65;;;;;;;-1.50;88.65;96157.63;1048892;28;20029;-74
2021/01/27 01:34:53;;;;;;;6.60;3.15;;;;;;;-1.52;87.87;96152.59;1049111;28;20024;-74
2021/01/27 01:35:24;;;;;;;4.85;3.20;;;;;;;-1.46;86.35;96161.50;1049138;28;20016;-74
2021/01/27 01:35:54;;;;;;;6.03;3.20;;;;;;;-1.52;86.87;96149.19;1049051;28;20009;-74
2021/01/27 01:36:25;;;;;;;4.07;2.83;;;;;;;-1.51;86.71;96150.81;1049076;28;20039;-74
2021/01/27 01:36:55;;;;;;;5.78;3.40;;;;;;;-1.51;87.36;96158.63;1049062;28;20013;-73
2021/01/27 01:37:25;;;;;;;5.40;2.95;;;;;;;-1.53;87.61;96147.59;1048851;28;20025;-73
2021/01/27 01:37:56;;;;;;;5.05;3.00;;;;;;;-1.53;86.62;96140.59;1048728;28;20020;-73
2021/01/27 01:38:26;;;;;;;4.80;3.00;;;;;;;-1.58;86.77;96136.88;1048801;28;20012;-74
2021/01/27 01:38:57;;;;;;;5.70;3.58;;;;;;;-1.59;88.18;96146.47;1048852;28;20072;-73
2021/01/27 01:39:27;;;;;;;5.72;3.83;;;;;;;-1.61;88.26;96145.03;1049138;28;20021;-74
2021/01/27 01:39:57;;;;;;;6.40;3.42;;;;;;;-1.60;87.68;96144.84;1049083;28;20373;-73
2021/01/27 01:40:30;;;;;;;4.90;3.45;;;;;;;-1.64;87.22;96134.97;1049117;28;20032;-74
2021/01/27 01:41:02;;;;;;;6.70;3.63;;;;;;;-1.61;86.48;96134.63;1049090;28;20021;-74
2021/01/27 01:41:32;;;;;;;4.63;3.15;;;;;;;-1.62;88.80;96136.41;1051289;28;20031;-74
2021/01/27 01:42:03;;;;;;;7.45;3.47;;;;;;;-1.60;87.90;96139.66;1049078;28;20063;-74
2021/01/27 01:42:34;;;;;;;6.20;3.13;;;;;;;-1.61;86.38;96132.03;1049101;28;20023;-74
2021/01/27 01:43:15;;;;;;;4.55;2.90;;;;;;;-1.63;87.98;96144.41;1049042;28;20024;-74
2021/01/27 01:43:46;;;;;;;7.28;3.15;;;;;;;-1.61;86.77;96142.44;1048774;28;20410;-74
2021/01/27 01:44:18;;;;;;;4.60;2.92;;;;;;;-1.63;86.68;96137.41;1048994;28;20062;-74
2021/01/27 01:44:48;;;;;;;4.60;2.88;;;;;;;-1.61;86.69;96142.44;1048789;28;20016;-73
2021/01/27 01:45:24;;;;;;;5.25;3.25;;;;;;;-1.65;87.43;96131.56;1048772;28;20339;-73
2021/01/27 01:46:00;;;;;;;5.38;3.05;;;;;;;-1.68;86.26;96137.09;1048790;28;20447;-74
2021/01/27 01:46:33;;;;;;;6.68;3.40;;;;;;;-1.66;85.82;96137.72;1050196;28;20112;-74
2021/01/27 01:47:03;;;;;;;5.28;3.10;;;;;;;-1.67;85.81;96130.09;1052919;28;20381;-74
2021/01/27 01:47:34;;;;;;;6.20;3.15;;;;;;;-1.72;86.99;96122.84;1051773;28;20024;-74
2021/01/27 01:48:12;;;;;;;4.72;3.15;;;;;;;-1.76;86.47;96124.16;1049347;28;20103;-74
2021/01/27 01:49:02;;;;;;;6.10;3.47;;;;;;;-1.75;89.00;96130.97;1052966;28;20032;-74
2021/01/27 01:49:33;;;;;;;9.82;3.53;;;;;;;-1.75;89.12;96130.97;1048895;28;20547;-73
2021/01/27 01:50:03;;;;;;;6.57;3.53;;;;;;;-1.77;88.20;96123.38;1040287;28;20029;-73
2021/01/27 01:50:34;;;;;;;7.80;3.10;;;;;;;-1.73;86.95;96126.41;1036406;28;20029;-74
2021/01/27 01:51:32;;;;;;;9.52;3.33;;;;;;;-1.74;86.78;96131.78;1038461;28;20041;-74
2021/01/27 01:52:03;;;;;;;5.32;3.13;;;;;;;-1.71;88.44;96131.44;1052499;28;20020;-75
2021/01/27 01:52:33;;;;;;;5.80;2.72;;;;;;;-1.74;87.62;96119.59;1048493;28;20028;-75
2021/01/27 01:53:03;;;;;;;6.72;3.47;;;;;;;-1.77;87.25;96118.16;1044672;28;20528;-75
2021/01/27 01:53:34;;;;;;;5.97;3.20;;;;;;;-1.79;86.98;96114.09;1040483;28;20072;-75
2021/01/27 01:54:19;;;;;;;5.22;2.97;;;;;;;-1.79;86.47;96114.09;1040620;28;20119;-75
2021/01/27 01:54:52;;;;;;;6.63;3.03;;;;;;;-1.81;86.90;96118.66;1046663;28;20027;-75
2021/01/27 01:55:22;;;;;;;8.55;3.63;;;;;;;-1.82;87.36;96112.66;1046321;28;20024;-75
2021/01/27 01:55:54;;;;;;;5.50;2.97;;;;;;;-1.81;87.01;96111.69;1047028;28;20382;-75
2021/01/27 01:56:28;;;;;;;5.30;2.65;;;;;;;-1.86;86.36;96103.59;1048255;28;20103;-75
2021/01/27 01:57:03;;;;;;;4.45;2.95;;;;;;;-1.80;88.54;96105.50;1045351;28;20355;-75
2021/01/27 01:57:34;;;;;;;5.45;2.95;;;;;;;-1.79;87.15;96109.72;1044628;28;20128;-75
2021/01/27 01:58:04;;;;;;;3.85;3.00;;;;;;;-1.84;87.33;96112.03;1044592;28;20628;-75
2021/01/27 01:58:35;;;;;;;7.13;3.08;;;;;;;-1.82;87.87;96112.66;1045743;28;20024;-75
2021/01/27 01:59:07;;;;;;;6.53;3.03;;;;;;;-1.79;88.24;96101.91;1044578;28;20434;-75
2021/01/27 01:59:40;;;;;;;5.70;3.20;;;;;;;-1.79;86.65;96104.50;1040854;28;20029;-74
2021/01/27 02:00:11;;;;;;;6.63;3.17;;;;;;;-1.82;87.04;96104.06;1040486;28;20446;-75
2021/01/27 02:00:41;;;;;;;5.25;2.78;;;;;;;-1.82;86.45;96104.88;1033030;28;20065;-76
2021/01/27 02:01:12;;;;;;;4.00;2.83;;;;;;;-1.80;85.89;96105.50;1036749;28;20022;-76
2021/01/27 02:01:42;;;;;;;6.32;3.05;;;;;;;-1.77;85.72;96099.16;1036457;28;20426;-75
2021/01/27 02:02:13;;;;;;;6.90;3.60;;;;;;;-1.78;86.04;96105.31;1036492;28;20653;-75
2021/01/27 02:02:43;;;;;;;7.15;3.15;;;;;;;-1.80;86.04;96102.91;1040535;28;20037;-75
2021/01/27 02:03:14;;;;;;;6.65;3.20;;;;;;;-1.79;85.73;96098.50;1044662;28;20024;-75
2021/01/27 02:03:44;;;;;;;5.70;2.72;;;;;;;-1.84;85.73;96096.44;1044584;28;20090;-75
2021/01/27 02:04:15;;;;;;;6.88;2.90;;;;;;;-1.86;86.76;96093.22;1044606;28;20032;-75
2021/01/27 02:04:51;;;;;;;8.27;3.13;;;;;;;-1.84;88.92;96096.44;1040398;28;20026;-74
2021/01/27 02:05:22;;;;;;;4.93;2.47;;;;;;;-1.90;87.06;96097.09;1041085;28;20053;-74
2021/01/27 02:05:53;;;;;;;7.22;3.28;;;;;;;-1.88;88.21;96092.56;1045656;28;20121;-75
2021/01/27 02:06:23;;;;;;;4.78;2.83;;;;;;;-1.85;89.09;96100.03;1048708;28;20478;-74
2021/01/27 02:06:54;;;;;;;6.38;3.20;;;;;;;-1.87;88.30;96096.78;1052708;28;20534;-72
2021/01/27 02:07:25;;;;;;;5.03;2.90;;;;;;;-1.87;88.02;96103.78;1048600;28;20024;-73
2021/01/27 02:07:56;;;;;;;5.15;2.70;;;;;;;-1.88;88.16;96100.38;1048681;28;20020;-75
2021/01/27 02:08:28;;;;;;;8.25;3.03;;;;;;;-1.90;87.18;96107.50;1048644;28;20082;-75
2021/01/27 02:08:58;;;;;;;4.10;2.70;;;;;;;-1.90;87.72;96107.50;1049154;28;20390;-74
2021/01/27 02:09:28;;;;;;;5.53;2.80;;;;;;;-1.92;87.90;96101.66;1052794;28;20035;-75
2021/01/27 02:09:59;;;;;;;7.35;2.70;;;;;;;-1.89;86.70;96103.13;1052816;28;20023;-73
2021/01/27 02:10:29;;;;;;;5.47;2.90;;;;;;;-1.91;87.67;96111.06;1052807;28;20032;-74
2021/01/27 02:11:00;;;;;;;4.57;2.83;;;;;;;-1.94;87.31;96110.63;1053133;28;20023;-75
2021/01/27 02:11:36;;;;;;;4.97;2.90;;;;;;;-1.95;87.81;96117.59;1052937;28;20032;-73
2021/01/27 02:12:25;;;;;;;5.45;2.25;;;;;;;-1.95;86.85;96104.63;1053169;28;20369;-73
2021/01/27 02:13:29;;;;;;;7.00;2.90;;;;;;;-1.91;89.09;96105.88;1053145;28;20028;-73
2021/01/27 02:14:18;;;;;;;4.70;2.55;;;;;;;-1.93;86.86;96105.25;1052705;28;20111;-73
2021/01/27 02:15:14;;;;;;;6.20;2.30;;;;;;;-1.97;88.34;96105.78;1052820;28;20048;-73
2021/01/27 02:16:07;;;;;;;7.15;2.88;;;;;;;-1.97;87.91;96116.16;1050352;28;20086;-73
2021/01/27 02:17:01;;;;;;;7.82;2.70;;;;;;;-1.96;86.41;96108.19;1051857;28;20047;-73
2021/01/27 02:17:50;;;;;;;5.05;2.45;;;;;;;-1.96;86.27;96112.59;1052816;28;20082;-73
2021/01/27 02:18:36;;;;;;;4.80;2.70;;;;;;;-1.95;85.80;96106.41;1053090;28;20055;-73
2021/01/27 02:19:26;;;;;;;5.70;2.75;;;;;;;-2.00;86.72;96106.13;1053078;28;20548;-74
2021/01/27 02:20:12;;;;;;;7.00;3.20;;;;;;;-2.01;87.77;96115.69;1052429;28;20114;-73
2021/01/27 02:21:10;;;;;;;5.10;2.42;;;;;;;-1.99;86.91;96108.53;1052812;28;20012;-73
2021/01/27 02:22:06;;;;;;;3.70;2.55;;;;;;;-1.98;87.79;96109.34;1052604;28;20032;-73
2021/01/27 02:22:42;;;;;;;5.95;2.72;;;;;;;-2.03;86.28;96112.44;1052780;28;20020;-74
2021/01/27 02:23:34;;;;;;;4.88;2.58;;;;;;;-2.01;86.12;96105.31;1052780;28;20012;-73
2021/01/27 02:24:29;;;;;;;5.90;2.97;;;;;;;-2.07;87.00;96105.97;1048490;28;20052;-73
2021/01/27 02:25:50;;;;;;;4.30;2.47;;;;;;;-2.16;87.97;96104.41;1046563;28;20340;-74
2021/01/27 02:26:43;;;;;;;3.92;2.10;;;;;;;-2.21;86.50;96104.09;1032026;28;20030;-74
2021/01/27 02:27:23;;;;;;;3.97;2.13;;;;;;;-2.17;86.95;96102.78;1040259;28;20088;-75
2021/01/27 02:27:54;;;;;;;6.07;3.03;;;;;;;-2.16;87.18;96110.41;1044415;28;20398;-74
2021/01/27 02:28:35;;;;;;;5.95;2.67;;;;;;;-2.20;88.19;96103.13;1040369;28;20044;-74
2021/01/27 02:29:28;;;;;;;5.38;2.92;;;;;;;-2.19;88.57;96102.94;1046849;28;20150;-74
2021/01/27 02:30:24;;;;;;;6.32;2.50;;;;;;;-2.24;87.29;96104.44;1044034;28;20464;-74
2021/01/27 02:31:11;;;;;;;6.65;2.85;;;;;;;-2.24;86.98;96101.84;1044458;28;20013;-74
2021/01/27 02:31:45;;;;;;;3.65;2.30;;;;;;;-2.23;87.93;96098.28;1041918;28;20021;-74
2021/01/27 02:32:53;;;;;;;7.55;2.75;;;;;;;-2.24;87.17;96104.44;1041325;28;20033;-74
2021/01/27 02:33:31;;;;;;;6.65;3.42;;;;;;;-2.23;88.47;96108.66;1038621;28;20072;-74
2021/01/27 02:34:09;;;;;;;7.15;2.78;;;;;;;-2.24;86.94;96100.06;1038777;28;20030;-74
2021/01/27 02:35:03;;;;;;;8.43;3.20;;;;;;;-2.22;88.88;96102.50;1041211;28;20017;-74
2021/01/27 02:35:41;;;;;;;5.97;3.45;;;;;;;-2.27;88.81;96099.56;1040643;28;20028;-74
2021/01/27 02:36:23;;;;;;;6.28;2.80;;;;;;;-2.25;87.42;96102.81;1040310;28;20093;-75
2021/01/27 02:36:59;;;;;;;8.57;3.03;;;;;;;-2.26;86.82;96101.19;1036155;28;20033;-74